Погода Санта-Элена-ди-Гоясна неделю

Гояс, Бразилия

21 - 27 апреля
  • 21апреля
    Сегодня
    +19°
    +31°
    Ясно и безоблачно
    ВремяПогодаТемператураВлажностьДавлениеВетер, м/сВероятность осадков
    00:00Практически безоблачно+25°C81 %713 мм1.7 м/с5 %
    03:00Ясно и безоблачно+22°C87 %712 мм1.8 м/с4 %
    06:00Ясно и безоблачно+21°C89 %712 мм2.3 м/с5 %
    09:00Ясно и безоблачно+25°C72 %714 мм1.9 м/с5 %
    12:00Ясно и безоблачно+29°C56 %714 мм2.5 м/с5 %
    15:00Ясно и безоблачно+31°C46 %712 мм1.5 м/с5 %
    18:00Ясно и безоблачно+28°C62 %711 мм0.1 м/с5 %
    21:00Практически безоблачно+25°C69 %712 мм1.8 м/с5 %
  • 22апреля
    Понедельник
    +21°
    +31°
    Ясно и безоблачно
    ВремяПогодаТемператураВлажностьДавлениеВетер, м/сВероятность осадков
    00:00Ясно и безоблачно+23°C77 %712 мм1.7 м/с5 %
    03:00Ясно и безоблачно+21°C77 %711 мм1.7 м/с5 %
    06:00Ясно и безоблачно+20°C83 %711 мм2.1 м/с5 %
    09:00Ясно и безоблачно+25°C62 %713 мм0.7 м/с5 %
    12:00Ясно и безоблачно+29°C52 %713 мм2.0 м/с3 %
    15:00Ясно и безоблачно+31°C42 %711 мм1.3 м/с5 %
    18:00Ясно и безоблачно+28°C53 %710 мм1.0 м/с5 %
    21:00Ясно и безоблачно+26°C58 %711 мм1.0 м/с5 %
  • 23апреля
    Вторник
    +20°
    +32°
    Практически безоблачно
    ВремяПогодаТемператураВлажностьДавлениеВетер, м/сВероятность осадков
    00:00Ясно и безоблачно+22°C63 %711 мм2.1 м/с3 %
    03:00Ясно и безоблачно+21°C68 %711 мм1.7 м/с2 %
    06:00Ясно и безоблачно+22°C63 %711 мм1.8 м/с5 %
    09:00Ясно и безоблачно+25°C60 %713 мм0.2 м/с5 %
    12:00Ясно и безоблачно+29°C51 %713 мм2.2 м/с5 %
    15:00Практически безоблачно+31°C43 %711 мм1.0 м/с5 %
    18:00Ясно и безоблачно+28°C61 %711 мм1.4 м/с5 %
    21:00Ясно и безоблачно+25°C69 %711 мм1.8 м/с5 %
  • 24апреля
    Среда
    +21°
    +32°
    Ясно и безоблачно
    ВремяПогодаТемператураВлажностьДавлениеВетер, м/сВероятность осадков
    00:00Практически безоблачно+22°C76 %711 мм1.6 м/с5 %
    03:00Небольшая облачность+21°C76 %711 мм1.5 м/с5 %
    06:00Небольшая облачность+21°C75 %711 мм1.5 м/с5 %
    09:00Ясно и безоблачно+25°C60 %714 мм1.2 м/с5 %
    12:00Практически безоблачно+30°C50 %713 мм1.7 м/с9 %
    15:00Ясно и безоблачно+32°C45 %712 мм0.4 м/с4 %
    18:00Ясно и безоблачно+28°C64 %711 мм1.7 м/с5 %
    21:00Ясно и безоблачно+26°C66 %711 мм2.0 м/с4 %
  • 25апреля
    Четверг
    +22°
    +33°
    Ясно и безоблачно
    ВремяПогодаТемператураВлажностьДавлениеВетер, м/сВероятность осадков
    00:00Небольшая облачность+23°C79 %711 мм1.7 м/с5 %
    03:00Практически безоблачно+22°C80 %710 мм1.6 м/с5 %
    06:00Ясно и безоблачно+22°C81 %711 мм1.6 м/с5 %
    09:00Ясно и безоблачно+26°C65 %713 мм1.7 м/с5 %
    12:00Ясно и безоблачно+30°C49 %712 мм2.5 м/с4 %
    15:00Ясно и безоблачно+32°C44 %711 мм1.6 м/с5 %
    18:00Ясно и безоблачно+29°C63 %710 мм1.2 м/с4 %
    21:00Ясно и безоблачно+27°C63 %711 мм2.4 м/с5 %
Мы используем cookies
Соглашаюсь